Time;durP1;ratioP1;P1;durP2;ratioP2;P2;SDS_P1;SDS_P2;PMS_P1;PMS_P2;Temp;Humidity;BMP_temperature;BMP_pressure;BME280_temperature;BME280_humidity;BME280_pressure;Samples;Min_cycle;Max_cycle;Signal;HPM_P1;HPM_P2
2024/02/23 00:01:57;;;;;;;7.35;3.42;;;;;;;;;;5053920;28;20109;-33
2024/02/23 00:04:24;;;;;;;5.15;3.17;;;;;;;;;;5058076;28;20600;-31
2024/02/23 00:06:51;;;;;;;7.10;3.40;;;;;;;;;;5047264;28;20142;-32
2024/02/23 00:09:18;;;;;;;6.22;3.65;;;;;;;;;;5032104;28;20032;-31
2024/02/23 00:11:45;;;;;;;4.57;3.90;;;;;;;;;;5051403;28;20021;-31
2024/02/23 00:14:13;;;;;;;6.65;3.85;;;;;;;;;;5055378;28;20111;-31
2024/02/23 00:16:40;;;;;;;7.15;4.30;;;;;;;;;;5051611;28;20106;-32
2024/02/23 00:19:10;;;;;;;5.72;3.70;;;;;;;;;;5026172;28;20030;-33
2024/02/23 00:21:38;;;;;;;4.10;3.28;;;;;;;;;;5048894;28;20073;-32
2024/02/23 00:24:05;;;;;;;57.08;4.97;;;;;;;;;;5056042;28;20054;-32
2024/02/23 00:26:32;;;;;;;5.07;2.97;;;;;;;;;;5056653;28;20081;-31
2024/02/23 00:28:59;;;;;;;11.52;4.32;;;;;;;;;;5051103;28;20062;-31
2024/02/23 00:31:26;;;;;;;11.98;3.70;;;;;;;;;;5050124;28;20036;-31
2024/02/23 00:33:53;;;;;;;6.55;3.78;;;;;;;;;;5042822;28;20029;-31
2024/02/23 00:36:20;;;;;;;7.90;4.35;;;;;;;;;;5055523;28;20479;-32
2024/02/23 00:38:47;;;;;;;8.07;4.60;;;;;;;;;;5059148;28;20473;-31
2024/02/23 00:41:14;;;;;;;6.53;4.57;;;;;;;;;;5065734;28;20044;-31
2024/02/23 00:43:41;;;;;;;9.68;4.60;;;;;;;;;;5047417;28;20091;-31
2024/02/23 00:46:09;;;;;;;9.38;4.18;;;;;;;;;;5070237;28;20047;-31
2024/02/23 00:48:36;;;;;;;5.95;4.00;;;;;;;;;;5070137;28;20101;-31
2024/02/23 00:51:03;;;;;;;8.23;5.05;;;;;;;;;;5068665;28;20062;-32
2024/02/23 00:53:32;;;;;;;7.80;4.53;;;;;;;;;;5061237;28;20035;-31
2024/02/23 00:55:59;;;;;;;5.45;3.50;;;;;;;;;;5047476;28;20086;-31
2024/02/23 00:58:26;;;;;;;4.50;3.05;;;;;;;;;;5069308;28;20034;-31
2024/02/23 01:00:53;;;;;;;5.15;2.60;;;;;;;;;;5070235;28;20110;-31
2024/02/23 01:03:20;;;;;;;3.28;2.30;;;;;;;;;;5070700;28;20020;-31
2024/02/23 01:05:47;;;;;;;3.30;2.35;;;;;;;;;;5066449;28;20032;-31
2024/02/23 01:08:14;;;;;;;4.20;2.88;;;;;;;;;;5069911;28;20040;-31
2024/02/23 01:10:41;;;;;;;8.65;3.72;;;;;;;;;;5070124;28;20028;-31
2024/02/23 01:13:08;;;;;;;6.78;3.83;;;;;;;;;;5070269;28;20029;-31
2024/02/23 01:15:35;;;;;;;9.10;5.20;;;;;;;;;;5070637;28;20044;-31
2024/02/23 01:18:02;;;;;;;8.18;5.10;;;;;;;;;;5069696;28;20028;-31
2024/02/23 01:20:29;;;;;;;6.90;5.55;;;;;;;;;;5070213;28;20028;-38
2024/02/23 01:22:56;;;;;;;9.27;6.45;;;;;;;;;;5058346;28;20491;-31
2024/02/23 01:25:23;;;;;;;9.05;6.30;;;;;;;;;;5073169;28;20032;-31
2024/02/23 01:27:50;;;;;;;9.25;5.55;;;;;;;;;;5073041;28;20032;-31
2024/02/23 01:30:18;;;;;;;8.27;4.75;;;;;;;;;;5068236;28;20093;-33
2024/02/23 01:32:46;;;;;;;7.43;4.93;;;;;;;;;;5074052;28;20437;-31
2024/02/23 01:35:13;;;;;;;8.80;5.97;;;;;;;;;;5056172;28;20757;-31
2024/02/23 01:37:40;;;;;;;10.38;7.63;;;;;;;;;;5074129;28;20021;-31
2024/02/23 01:40:07;;;;;;;14.88;8.68;;;;;;;;;;5073618;28;20197;-31
2024/02/23 01:42:34;;;;;;;13.63;8.95;;;;;;;;;;5073989;28;20032;-31
2024/02/23 01:45:01;;;;;;;13.38;9.18;;;;;;;;;;5069235;28;20390;-31
2024/02/23 01:47:29;;;;;;;11.50;6.65;;;;;;;;;;5061410;28;20036;-31
2024/02/23 01:49:56;;;;;;;8.27;5.40;;;;;;;;;;5060853;28;20471;-31
2024/02/23 01:52:23;;;;;;;8.18;4.40;;;;;;;;;;5063939;28;20025;-31
2024/02/23 01:54:51;;;;;;;4.68;3.50;;;;;;;;;;5066851;28;20040;-31
2024/02/23 01:57:18;;;;;;;6.68;2.95;;;;;;;;;;5073168;28;20021;-31
2024/02/23 01:59:45;;;;;;;5.15;2.95;;;;;;;;;;5073700;28;20093;-31
2024/02/23 02:02:12;;;;;;;8.45;2.90;;;;;;;;;;5055929;28;20561;-31
2024/02/23 02:04:39;;;;;;;4.80;2.80;;;;;;;;;;5073487;28;20021;-31
2024/02/23 02:07:06;;;;;;;5.70;2.80;;;;;;;;;;5072927;28;20045;-31
2024/02/23 02:09:33;;;;;;;6.43;2.78;;;;;;;;;;5073501;28;20402;-31
2024/02/23 02:12:01;;;;;;;4.60;2.50;;;;;;;;;;5073291;28;20478;-31
2024/02/23 02:14:31;;;;;;;5.57;2.25;;;;;;;;;;5073604;28;20031;-31
2024/02/23 02:16:58;;;;;;;6.00;2.28;;;;;;;;;;5073167;28;20044;-32
2024/02/23 02:19:25;;;;;;;3.33;2.10;;;;;;;;;;5073552;28;20123;-32
2024/02/23 02:21:52;;;;;;;3.67;1.90;;;;;;;;;;5066802;28;20466;-31
2024/02/23 02:24:21;;;;;;;5.65;2.22;;;;;;;;;;5054518;28;20505;-31
2024/02/23 02:26:50;;;;;;;5.60;2.35;;;;;;;;;;5072826;28;20040;-31
2024/02/23 02:29:17;;;;;;;4.97;2.15;;;;;;;;;;5072885;28;20032;-33
2024/02/23 02:31:44;;;;;;;3.35;1.88;;;;;;;;;;5069788;28;20032;-32
2024/02/23 02:34:14;;;;;;;4.13;2.20;;;;;;;;;;5073037;28;20032;-32
2024/02/23 02:36:41;;;;;;;3.50;2.13;;;;;;;;;;5073065;28;20111;-32
2024/02/23 02:39:10;;;;;;;2.65;1.70;;;;;;;;;;5062827;28;20048;-31
2024/02/23 02:41:37;;;;;;;3.33;1.80;;;;;;;;;;5057376;28;20135;-31
2024/02/23 02:44:04;;;;;;;2.83;1.77;;;;;;;;;;5057587;28;20028;-31
2024/02/23 02:46:31;;;;;;;3.88;1.90;;;;;;;;;;5056077;28;20182;-31
2024/02/23 02:48:58;;;;;;;4.15;2.20;;;;;;;;;;5057575;28;20037;-31
2024/02/23 02:51:25;;;;;;;3.05;1.80;;;;;;;;;;5041417;28;20025;-31
2024/02/23 02:53:53;;;;;;;2.88;1.85;;;;;;;;;;5058553;28;20089;-32
2024/02/23 02:56:20;;;;;;;5.75;1.65;;;;;;;;;;5056584;28;20091;-31
2024/02/23 02:58:47;;;;;;;5.30;2.00;;;;;;;;;;5054643;28;20031;-31
2024/02/23 03:01:14;;;;;;;1.50;1.40;;;;;;;;;;5065603;28;20566;-32
2024/02/23 03:03:42;;;;;;;3.38;1.73;;;;;;;;;;5062921;28;20037;-31
2024/02/23 03:06:09;;;;;;;5.57;1.75;;;;;;;;;;5056619;28;20060;-31
2024/02/23 03:08:36;;;;;;;7.13;1.40;;;;;;;;;;5060373;28;20020;-31
2024/02/23 03:11:03;;;;;;;3.22;1.73;;;;;;;;;;5070574;28;20025;-31
2024/02/23 03:13:31;;;;;;;3.80;1.75;;;;;;;;;;5071098;28;20040;-31
2024/02/23 03:15:59;;;;;;;1.88;1.58;;;;;;;;;;5069333;28;20033;-31
2024/02/23 03:18:29;;;;;;;3.40;1.60;;;;;;;;;;5052337;28;20028;-31
2024/02/23 03:20:56;;;;;;;4.28;1.50;;;;;;;;;;5060882;28;20040;-31
2024/02/23 03:23:23;;;;;;;2.95;1.70;;;;;;;;;;5045487;28;20556;-32
2024/02/23 03:25:50;;;;;;;7.65;2.03;;;;;;;;;;5050245;28;20600;-32
2024/02/23 03:28:17;;;;;;;3.50;1.50;;;;;;;;;;5047334;28;20045;-32
2024/02/23 03:30:45;;;;;;;3.30;1.40;;;;;;;;;;5051564;28;20053;-32
2024/02/23 03:33:12;;;;;;;3.53;1.40;;;;;;;;;;5059015;28;20029;-31
2024/02/23 03:35:39;;;;;;;2.58;1.40;;;;;;;;;;5049663;28;20020;-31
2024/02/23 03:38:06;;;;;;;3.40;1.48;;;;;;;;;;5059113;28;20405;-31
2024/02/23 03:40:33;;;;;;;3.22;1.60;;;;;;;;;;5047027;28;20380;-31
2024/02/23 03:43:00;;;;;;;2.22;1.30;;;;;;;;;;5045160;28;20172;-33
2024/02/23 03:45:27;;;;;;;7.47;1.50;;;;;;;;;;5045382;28;20083;-31
2024/02/23 03:47:54;;;;;;;3.92;1.40;;;;;;;;;;5055805;28;20328;-31
2024/02/23 03:50:21;;;;;;;4.38;1.50;;;;;;;;;;5045877;28;20057;-31
2024/02/23 03:52:48;;;;;;;3.47;1.15;;;;;;;;;;5053842;28;20032;-31
2024/02/23 03:55:15;;;;;;;3.08;1.50;;;;;;;;;;5046278;28;20037;-34
2024/02/23 03:57:42;;;;;;;2.53;1.30;;;;;;;;;;5049816;28;20021;-31
2024/02/23 04:00:09;;;;;;;3.97;1.23;;;;;;;;;;5051507;28;20032;-31
2024/02/23 04:02:37;;;;;;;2.00;1.30;;;;;;;;;;5051783;28;20554;-31
2024/02/23 04:05:04;;;;;;;3.33;1.20;;;;;;;;;;5051407;28;20025;-32
2024/02/23 04:07:31;;;;;;;2.45;1.30;;;;;;;;;;5051409;28;20075;-31
2024/02/23 04:09:58;;;;;;;5.13;1.48;;;;;;;;;;5051288;28;20120;-30
2024/02/23 04:12:25;;;;;;;3.47;1.30;;;;;;;;;;5051079;28;20036;-31
2024/02/23 04:14:52;;;;;;;1.77;1.08;;;;;;;;;;5059457;28;20063;-31
2024/02/23 04:17:19;;;;;;;1.30;1.15;;;;;;;;;;5054915;28;20410;-31
2024/02/23 04:19:46;;;;;;;1.67;1.10;;;;;;;;;;5051277;28;20024;-31
2024/02/23 04:22:13;;;;;;;2.92;1.30;;;;;;;;;;5051564;28;20166;-31
2024/02/23 04:24:41;;;;;;;1.27;1.00;;;;;;;;;;5047548;28;20090;-31
2024/02/23 04:27:08;;;;;;;4.78;1.20;;;;;;;;;;5049782;28;20033;-32
2024/02/23 04:29:35;;;;;;;4.40;1.13;;;;;;;;;;5064191;28;20025;-31
2024/02/23 04:32:03;;;;;;;6.15;1.73;;;;;;;;;;5049094;28;20045;-31
2024/02/23 04:34:30;;;;;;;3.17;1.38;;;;;;;;;;5053519;28;20666;-31
2024/02/23 04:36:57;;;;;;;4.25;1.40;;;;;;;;;;5051103;28;20040;-33
2024/02/23 04:39:24;;;;;;;2.83;1.20;;;;;;;;;;5064082;28;20044;-31
2024/02/23 04:41:51;;;;;;;3.33;1.10;;;;;;;;;;5051118;28;20550;-31
2024/02/23 04:44:17;;;;;;;2.15;1.13;;;;;;;;;;5054093;28;20470;-31
2024/02/23 04:46:44;;;;;;;4.40;1.33;;;;;;;;;;5067747;28;20029;-32
2024/02/23 04:49:11;;;;;;;2.40;1.30;;;;;;;;;;5025657;28;20501;-32
2024/02/23 04:51:38;;;;;;;1.65;1.08;;;;;;;;;;5058393;28;20048;-31
2024/02/23 04:54:06;;;;;;;2.83;1.48;;;;;;;;;;5042888;28;20021;-31
2024/02/23 04:56:33;;;;;;;2.47;1.10;;;;;;;;;;5052606;28;20029;-31
2024/02/23 04:59:00;;;;;;;2.60;1.38;;;;;;;;;;5055673;28;20750;-31
2024/02/23 05:01:27;;;;;;;3.20;1.20;;;;;;;;;;5035220;28;20059;-31
2024/02/23 05:03:54;;;;;;;2.42;1.30;;;;;;;;;;5053803;28;20028;-31
2024/02/23 05:06:21;;;;;;;4.53;1.45;;;;;;;;;;5071016;28;20045;-31
2024/02/23 05:08:48;;;;;;;2.40;1.30;;;;;;;;;;5053927;28;20025;-31
2024/02/23 05:11:16;;;;;;;2.03;1.70;;;;;;;;;;5049628;28;20033;-32
2024/02/23 05:13:43;;;;;;;5.20;1.70;;;;;;;;;;5054437;28;20462;-31
2024/02/23 05:16:10;;;;;;;4.97;1.30;;;;;;;;;;5054427;28;20048;-31
2024/02/23 05:18:37;;;;;;;1.95;1.35;;;;;;;;;;5054094;28;20033;-31
2024/02/23 05:21:04;;;;;;;3.60;1.65;;;;;;;;;;5054461;28;20052;-31
2024/02/23 05:23:32;;;;;;;4.97;1.60;;;;;;;;;;5054223;28;20025;-31
2024/02/23 05:25:59;;;;;;;4.47;1.52;;;;;;;;;;5054498;28;20055;-31
2024/02/23 05:28:26;;;;;;;2.10;1.45;;;;;;;;;;5054764;28;20024;-31
2024/02/23 05:30:53;;;;;;;3.00;1.58;;;;;;;;;;5054757;28;20029;-31
2024/02/23 05:33:22;;;;;;;6.43;1.50;;;;;;;;;;5054748;28;20021;-31
2024/02/23 05:35:49;;;;;;;2.45;1.25;;;;;;;;;;5054499;28;20071;-31
2024/02/23 05:38:17;;;;;;;2.65;1.40;;;;;;;;;;5059120;28;20044;-30
2024/02/23 05:40:45;;;;;;;2.55;1.40;;;;;;;;;;5056126;28;20029;-31
2024/02/23 05:43:12;;;;;;;4.13;1.60;;;;;;;;;;5074457;28;20505;-31
2024/02/23 05:45:39;;;;;;;2.80;1.52;;;;;;;;;;5074532;28;20081;-30
2024/02/23 05:48:07;;;;;;;5.50;1.63;;;;;;;;;;5074357;28;20032;-31
2024/02/23 05:50:33;;;;;;;5.53;1.70;;;;;;;;;;5074315;28;20020;-31
2024/02/23 05:53:00;;;;;;;3.20;1.52;;;;;;;;;;5074196;28;20158;-31
2024/02/23 05:55:27;;;;;;;3.92;1.60;;;;;;;;;;5074267;28;20036;-31
2024/02/23 05:57:54;;;;;;;5.03;1.58;;;;;;;;;;5074239;28;20031;-31
2024/02/23 06:00:21;;;;;;;3.65;1.55;;;;;;;;;;5074135;28;20029;-31
2024/02/23 06:02:48;;;;;;;4.53;1.50;;;;;;;;;;5073225;28;20119;-31
2024/02/23 06:05:15;;;;;;;8.68;1.70;;;;;;;;;;5074133;28;20024;-31
2024/02/23 06:07:42;;;;;;;6.00;1.67;;;;;;;;;;5073997;28;20036;-31
2024/02/23 06:10:10;;;;;;;3.28;1.65;;;;;;;;;;5073655;28;20107;-31
2024/02/23 06:12:38;;;;;;;2.28;1.50;;;;;;;;;;5074068;28;20107;-31
2024/02/23 06:15:06;;;;;;;1.77;1.30;;;;;;;;;;5073804;28;20040;-31
2024/02/23 06:17:33;;;;;;;7.70;1.55;;;;;;;;;;5073684;28;20107;-31
2024/02/23 06:20:00;;;;;;;1.70;1.30;;;;;;;;;;5073947;28;20036;-31
2024/02/23 06:22:27;;;;;;;2.85;1.35;;;;;;;;;;5073894;28;20029;-31
2024/02/23 06:24:54;;;;;;;2.20;1.30;;;;;;;;;;5073821;28;20017;-30
2024/02/23 06:27:21;;;;;;;2.53;1.48;;;;;;;;;;5073521;28;20029;-30
2024/02/23 06:29:48;;;;;;;5.13;1.42;;;;;;;;;;5073465;28;20508;-30
2024/02/23 06:32:16;;;;;;;3.85;1.30;;;;;;;;;;5073718;28;20047;-30
2024/02/23 06:34:42;;;;;;;5.07;1.20;;;;;;;;;;5073541;28;20082;-30
2024/02/23 06:37:09;;;;;;;2.95;1.38;;;;;;;;;;5073236;28;20032;-30
2024/02/23 06:39:36;;;;;;;3.90;1.10;;;;;;;;;;5073371;28;20056;-30
2024/02/23 06:42:04;;;;;;;2.45;1.17;;;;;;;;;;5073517;28;20031;-31
2024/02/23 06:44:31;;;;;;;3.05;1.33;;;;;;;;;;5067505;28;20044;-30
2024/02/23 06:46:58;;;;;;;4.65;1.20;;;;;;;;;;5053231;28;20053;-32
2024/02/23 06:49:26;;;;;;;3.33;1.20;;;;;;;;;;5053215;28;20091;-31
2024/02/23 06:51:53;;;;;;;3.78;1.27;;;;;;;;;;5053321;28;20021;-30
2024/02/23 06:54:20;;;;;;;3.70;0.90;;;;;;;;;;5053238;28;20027;-30
2024/02/23 06:56:47;;;;;;;5.32;1.13;;;;;;;;;;5053155;28;20394;-30
2024/02/23 06:59:14;;;;;;;2.63;0.90;;;;;;;;;;5053083;28;20056;-31
2024/02/23 07:01:53;;;;;;;1.48;1.00;;;;;;;;;;5053069;28;20024;-30
2024/02/23 07:04:20;;;;;;;2.17;1.08;;;;;;;;;;5053105;28;20027;-30
2024/02/23 07:06:47;;;;;;;7.22;1.00;;;;;;;;;;5052703;28;20037;-30
2024/02/23 07:09:14;;;;;;;2.58;1.00;;;;;;;;;;5053006;28;20025;-30
2024/02/23 07:11:43;;;;;;;2.53;1.10;;;;;;;;;;5052840;28;20082;-30
2024/02/23 07:14:12;;;;;;;3.25;0.90;;;;;;;;;;5052700;28;20025;-30
2024/02/23 07:16:39;;;;;;;4.88;1.10;;;;;;;;;;5052607;28;20406;-30
2024/02/23 07:19:07;;;;;;;4.25;1.10;;;;;;;;;;5052800;28;20028;-30
2024/02/23 07:21:34;;;;;;;1.85;0.93;;;;;;;;;;5051902;28;20024;-30
2024/02/23 07:24:01;;;;;;;5.10;1.08;;;;;;;;;;5034587;28;20589;-30
2024/02/23 07:26:30;;;;;;;4.30;1.17;;;;;;;;;;5052413;28;20106;-30
2024/02/23 07:28:57;;;;;;;1.80;0.88;;;;;;;;;;5052597;28;20111;-30
2024/02/23 07:31:24;;;;;;;3.10;1.20;;;;;;;;;;5052590;28;20119;-31
2024/02/23 07:33:51;;;;;;;3.53;1.27;;;;;;;;;;5052473;28;20033;-30
2024/02/23 07:36:19;;;;;;;2.45;0.80;;;;;;;;;;5052098;28;20028;-30
2024/02/23 07:38:46;;;;;;;3.72;0.70;;;;;;;;;;5030906;28;20049;-30
2024/02/23 07:41:13;;;;;;;5.50;0.80;;;;;;;;;;5032470;28;20096;-30
2024/02/23 07:43:40;;;;;;;4.18;0.68;;;;;;;;;;5032336;28;20025;-30
2024/02/23 07:46:10;;;;;;;5.10;0.80;;;;;;;;;;5032219;28;20030;-31
2024/02/23 07:48:37;;;;;;;1.45;0.57;;;;;;;;;;5032288;28;20506;-31
2024/02/23 07:51:06;;;;;;;6.78;0.80;;;;;;;;;;5032366;28;20033;-31
2024/02/23 07:53:33;;;;;;;6.07;0.75;;;;;;;;;;5032274;28;20029;-32
2024/02/23 07:56:02;;;;;;;4.72;0.50;;;;;;;;;;5032090;28;20602;-31
2024/02/23 07:58:29;;;;;;;4.90;0.50;;;;;;;;;;5032225;28;20546;-31
2024/02/23 08:00:57;;;;;;;4.38;0.50;;;;;;;;;;5032196;28;20021;-31
2024/02/23 08:03:24;;;;;;;1.45;0.57;;;;;;;;;;5032130;28;20434;-31
2024/02/23 08:05:51;;;;;;;2.30;0.40;;;;;;;;;;5030566;28;20113;-31
2024/02/23 08:08:18;;;;;;;4.07;0.50;;;;;;;;;;5031830;28;20104;-30
2024/02/23 08:10:45;;;;;;;4.18;0.55;;;;;;;;;;5031934;28;20073;-31
2024/02/23 08:13:12;;;;;;;4.40;0.68;;;;;;;;;;5031979;28;20432;-31
2024/02/23 08:15:39;;;;;;;3.58;0.57;;;;;;;;;;5031864;28;20021;-31
2024/02/23 08:18:06;;;;;;;5.30;0.60;;;;;;;;;;5030426;28;20091;-30
2024/02/23 08:20:33;;;;;;;4.15;0.60;;;;;;;;;;5031740;28;20100;-31
2024/02/23 08:23:00;;;;;;;2.45;0.50;;;;;;;;;;5031655;28;20040;-30
2024/02/23 08:25:28;;;;;;;1.15;0.30;;;;;;;;;;5031817;28;20025;-30
2024/02/23 08:27:56;;;;;;;3.58;0.50;;;;;;;;;;5031515;28;20037;-31
2024/02/23 08:30:23;;;;;;;7.65;0.70;;;;;;;;;;5031651;28;20052;-30
2024/02/23 08:32:50;;;;;;;1.45;0.40;;;;;;;;;;5031464;28;20044;-31
2024/02/23 08:35:18;;;;;;;10.10;0.60;;;;;;;;;;5031692;28;20022;-31
2024/02/23 08:37:45;;;;;;;1.63;0.47;;;;;;;;;;5031540;28;20526;-31
2024/02/23 08:40:13;;;;;;;0.90;0.40;;;;;;;;;;5051389;28;20025;-31
2024/02/23 08:42:40;;;;;;;3.08;0.70;;;;;;;;;;5051503;28;20016;-31
2024/02/23 08:45:07;;;;;;;3.17;0.60;;;;;;;;;;5051367;28;20056;-30
2024/02/23 08:47:35;;;;;;;4.45;0.50;;;;;;;;;;5051262;28;20555;-30
2024/02/23 08:50:02;;;;;;;5.60;0.50;;;;;;;;;;5051309;28;20090;-31
2024/02/23 08:52:29;;;;;;;2.83;0.30;;;;;;;;;;5051280;28;20069;-30
2024/02/23 08:54:56;;;;;;;3.58;0.45;;;;;;;;;;5051460;28;20056;-30
2024/02/23 08:57:23;;;;;;;3.22;0.35;;;;;;;;;;5051284;28;20036;-31
2024/02/23 08:59:51;;;;;;;2.03;0.50;;;;;;;;;;5051176;28;20021;-31
2024/02/23 09:02:19;;;;;;;3.60;0.50;;;;;;;;;;5051301;28;20103;-32
2024/02/23 09:04:46;;;;;;;3.13;0.50;;;;;;;;;;5051142;28;20029;-31
2024/02/23 09:07:13;;;;;;;4.15;0.63;;;;;;;;;;5051128;28;20028;-31
2024/02/23 09:09:40;;;;;;;4.03;0.40;;;;;;;;;;5033271;28;20048;-31
2024/02/23 09:12:10;;;;;;;4.35;0.50;;;;;;;;;;5051143;28;20029;-31
2024/02/23 09:14:41;;;;;;;6.50;0.65;;;;;;;;;;5051026;28;20036;-31
2024/02/23 09:17:08;;;;;;;3.53;0.40;;;;;;;;;;5050888;28;20044;-34
2024/02/23 09:19:36;;;;;;;2.65;0.30;;;;;;;;;;5051137;28;20102;-31
2024/02/23 09:22:03;;;;;;;3.55;0.50;;;;;;;;;;5051194;28;20052;-31
2024/02/23 09:24:30;;;;;;;1.35;0.40;;;;;;;;;;5051055;28;20451;-31
2024/02/23 09:26:57;;;;;;;2.13;0.30;;;;;;;;;;5050839;28;20036;-31
2024/02/23 09:29:24;;;;;;;2.88;0.40;;;;;;;;;;5050974;28;20106;-33
2024/02/23 09:31:52;;;;;;;7.43;0.50;;;;;;;;;;5065828;28;20348;-31
2024/02/23 09:34:19;;;;;;;2.42;0.30;;;;;;;;;;5071063;28;20049;-31
2024/02/23 09:36:46;;;;;;;2.83;0.43;;;;;;;;;;5070850;28;20099;-31
2024/02/23 09:39:13;;;;;;;5.78;0.60;;;;;;;;;;5070937;28;20482;-31
2024/02/23 09:41:40;;;;;;;3.90;0.40;;;;;;;;;;5071001;28;20054;-31
2024/02/23 09:44:09;;;;;;;5.38;0.40;;;;;;;;;;5071666;28;20031;-33
2024/02/23 09:46:38;;;;;;;3.72;0.43;;;;;;;;;;5074412;28;20028;-31
2024/02/23 09:49:06;;;;;;;1.60;0.50;;;;;;;;;;5056468;28;20032;-32
2024/02/23 09:51:37;;;;;;;7.40;0.60;;;;;;;;;;5074346;28;20104;-32
2024/02/23 09:54:04;;;;;;;1.95;0.50;;;;;;;;;;5074440;28;20024;-32
2024/02/23 09:56:33;;;;;;;1.52;0.40;;;;;;;;;;5074265;28;20043;-32
2024/02/23 09:59:02;;;;;;;5.30;0.70;;;;;;;;;;5074164;28;20056;-33
2024/02/23 10:01:33;;;;;;;6.40;0.75;;;;;;;;;;5074192;28;20437;-31
2024/02/23 10:04:04;;;;;;;3.70;0.50;;;;;;;;;;5074143;28;20020;-31
2024/02/23 10:06:31;;;;;;;5.50;0.70;;;;;;;;;;5073843;28;20043;-31
2024/02/23 10:08:58;;;;;;;0.70;0.40;;;;;;;;;;5074162;28;20048;-33
2024/02/23 10:11:25;;;;;;;3.08;0.60;;;;;;;;;;5074087;28;20028;-31
2024/02/23 10:13:53;;;;;;;2.05;0.60;;;;;;;;;;5073885;28;20434;-33
2024/02/23 10:16:20;;;;;;;2.10;0.60;;;;;;;;;;5073821;28;20016;-31
2024/02/23 10:18:48;;;;;;;3.63;0.63;;;;;;;;;;5073925;28;20433;-31
2024/02/23 10:21:16;;;;;;;6.43;0.52;;;;;;;;;;5073922;28;20638;-31
2024/02/23 10:23:45;;;;;;;8.50;0.60;;;;;;;;;;5073907;28;20482;-31
2024/02/23 10:26:12;;;;;;;3.40;0.68;;;;;;;;;;5073532;28;20390;-31
2024/02/23 10:28:39;;;;;;;24.88;1.38;;;;;;;;;;5073709;28;20020;-32
2024/02/23 10:31:07;;;;;;;2.97;0.43;;;;;;;;;;5073622;28;20047;-31
2024/02/23 10:33:35;;;;;;;20.52;1.70;;;;;;;;;;5073672;28;20021;-31
2024/02/23 10:36:06;;;;;;;3.38;0.55;;;;;;;;;;5073500;28;20024;-33
2024/02/23 10:38:33;;;;;;;2.78;0.50;;;;;;;;;;5073337;28;20097;-31
2024/02/23 10:41:02;;;;;;;3.53;0.40;;;;;;;;;;5064769;28;20483;-32
2024/02/23 10:43:31;;;;;;;1.23;0.30;;;;;;;;;;5055379;28;20073;-31
2024/02/23 10:46:02;;;;;;;3.00;0.60;;;;;;;;;;5073131;28;20081;-32
2024/02/23 10:48:30;;;;;;;2.83;0.52;;;;;;;;;;5073051;28;20037;-31
2024/02/23 10:50:58;;;;;;;2.95;0.73;;;;;;;;;;5073166;28;20046;-31
2024/02/23 10:53:25;;;;;;;1.40;0.40;;;;;;;;;;5073295;28;20030;-31
2024/02/23 10:56:00;;;;;;;3.38;0.40;;;;;;;;;;5072960;28;20024;-31
2024/02/23 10:58:28;;;;;;;2.10;0.55;;;;;;;;;;5073185;28;20033;-32
2024/02/23 11:01:00;;;;;;;4.72;0.45;;;;;;;;;;5073001;28;20030;-32
2024/02/23 11:03:27;;;;;;;;;;;;;;;;;;5073455;28;20394;-33
2024/02/23 11:05:54;;;;;;;6.10;0.70;;;;;;;;;;5072889;28;20367;-31
2024/02/23 11:08:21;;;;;;;3.70;0.47;;;;;;;;;;5072848;28;20028;-31
2024/02/23 11:10:54;;;;;;;2.25;0.60;;;;;;;;;;5072915;28;20030;-31
2024/02/23 11:13:39;;;;;;;0.85;0.30;;;;;;;;;;5072760;28;20550;-32
2024/02/23 11:16:08;;;;;;;2.70;0.40;;;;;;;;;;5072819;28;20028;-34
2024/02/23 11:18:36;;;;;;;3.60;0.60;;;;;;;;;;5072637;28;20060;-32
2024/02/23 11:21:07;;;;;;;2.45;0.50;;;;;;;;;;5072465;28;20055;-32
2024/02/23 11:23:44;;;;;;;6.35;0.75;;;;;;;;;;5072656;28;20020;-34
2024/02/23 11:26:11;;;;;;;5.28;0.63;;;;;;;;;;5072490;28;20551;-31
2024/02/23 11:28:45;;;;;;;2.95;0.45;;;;;;;;;;5072565;28;20033;-31
2024/02/23 11:31:13;;;;;;;5.72;0.50;;;;;;;;;;5072582;28;20024;-32
2024/02/23 11:33:40;;;;;;;1.50;0.22;;;;;;;;;;5071632;28;20474;-33
2024/02/23 11:36:07;;;;;;;3.75;0.32;;;;;;;;;;5072146;28;20020;-31
2024/02/23 11:38:35;;;;;;;3.13;0.40;;;;;;;;;;5071810;28;20044;-31
2024/02/23 11:41:03;;;;;;;2.60;0.40;;;;;;;;;;5071072;28;20036;-31
2024/02/23 11:43:30;;;;;;;3.45;0.50;;;;;;;;;;5069256;28;20533;-31
2024/02/23 11:45:57;;;;;;;2.25;0.35;;;;;;;;;;5071450;28;20113;-31
2024/02/23 11:48:24;;;;;;;0.60;0.30;;;;;;;;;;5071544;28;20040;-31
2024/02/23 11:50:51;;;;;;;3.90;0.75;;;;;;;;;;5071475;28;20033;-31
2024/02/23 11:53:20;;;;;;;5.55;0.60;;;;;;;;;;5071161;28;20492;-32
2024/02/23 11:55:48;;;;;;;1.63;0.68;;;;;;;;;;5071655;28;20041;-31
2024/02/23 11:58:16;;;;;;;2.75;0.47;;;;;;;;;;5081415;28;20412;-31
2024/02/23 12:00:43;;;;;;;0.77;0.30;;;;;;;;;;5056043;28;20040;-31
2024/02/23 12:03:10;;;;;;;4.30;0.47;;;;;;;;;;5052746;28;20371;-31
2024/02/23 12:05:37;;;;;;;2.55;0.40;;;;;;;;;;5073596;28;20032;-31
2024/02/23 12:08:05;;;;;;;4.57;0.38;;;;;;;;;;5070524;28;20086;-31
2024/02/23 12:10:32;;;;;;;10.90;0.60;;;;;;;;;;5048362;28;20428;-31
2024/02/23 12:12:59;;;;;;;5.32;0.68;;;;;;;;;;5079008;28;20055;-32
2024/02/23 12:15:28;;;;;;;2.25;0.60;;;;;;;;;;5079184;28;20023;-30
2024/02/23 12:18:00;;;;;;;4.55;0.60;;;;;;;;;;5071455;28;20036;-33
2024/02/23 12:20:27;;;;;;;5.35;0.40;;;;;;;;;;5070515;28;20629;-30
2024/02/23 12:22:56;;;;;;;6.03;0.35;;;;;;;;;;5075512;28;20058;-28
2024/02/23 12:25:23;;;;;;;5.07;0.60;;;;;;;;;;5070714;28;20039;-32
2024/02/23 12:27:55;;;;;;;5.93;0.40;;;;;;;;;;5071014;28;20036;-30
2024/02/23 12:30:22;;;;;;;7.13;0.50;;;;;;;;;;5070580;28;20020;-30
2024/02/23 12:32:49;;;;;;;3.83;0.40;;;;;;;;;;5068752;28;20020;-34
2024/02/23 12:35:16;;;;;;;3.13;0.50;;;;;;;;;;5072441;28;20394;-32
2024/02/23 12:37:45;;;;;;;1.58;0.38;;;;;;;;;;5066220;28;20027;-32
2024/02/23 12:40:12;;;;;;;6.60;0.65;;;;;;;;;;5044472;28;20549;-31
2024/02/23 12:42:39;;;;;;;2.67;0.40;;;;;;;;;;5031727;28;20475;-28
2024/02/23 12:45:07;;;;;;;3.53;0.80;;;;;;;;;;5049883;28;20029;-32
2024/02/23 12:47:34;;;;;;;1.08;0.55;;;;;;;;;;5049704;28;20071;-31
2024/02/23 12:50:01;;;;;;;6.53;0.52;;;;;;;;;;5040524;28;20610;-30
2024/02/23 12:52:28;;;;;;;5.47;0.45;;;;;;;;;;5049688;28;20086;-31
2024/02/23 12:54:55;;;;;;;2.63;0.50;;;;;;;;;;5031978;28;20439;-30
2024/02/23 12:57:22;;;;;;;5.43;0.50;;;;;;;;;;5049902;28;20083;-29
2024/02/23 12:59:49;;;;;;;4.10;0.50;;;;;;;;;;5050366;28;20592;-31
2024/02/23 13:02:16;;;;;;;4.28;0.50;;;;;;;;;;5049270;28;20086;-30
2024/02/23 13:04:48;;;;;;;5.18;0.60;;;;;;;;;;5047526;28;20033;-29
2024/02/23 13:07:16;;;;;;;2.28;0.40;;;;;;;;;;5049003;28;20041;-33
2024/02/23 13:09:44;;;;;;;2.40;0.47;;;;;;;;;;5049751;28;20021;-35
2024/02/23 13:12:11;;;;;;;5.25;0.50;;;;;;;;;;5050911;28;20029;-36
2024/02/23 13:14:38;;;;;;;2.50;0.40;;;;;;;;;;5049105;28;20384;-39
2024/02/23 13:17:05;;;;;;;1.83;0.50;;;;;;;;;;5050705;28;20036;-34
2024/02/23 13:19:31;;;;;;;2.47;0.50;;;;;;;;;;5052395;28;20407;-39
2024/02/23 13:22:00;;;;;;;5.38;0.38;;;;;;;;;;5054879;28;20477;-40
2024/02/23 13:24:27;;;;;;;3.83;0.93;;;;;;;;;;5053539;28;20064;-41
2024/02/23 13:26:54;;;;;;;1.55;0.30;;;;;;;;;;5054112;28;20119;-39
2024/02/23 13:29:21;;;;;;;2.45;0.38;;;;;;;;;;5054692;28;20067;-37
2024/02/23 13:31:48;;;;;;;0.60;0.17;;;;;;;;;;5054654;28;20096;-41
2024/02/23 13:34:17;;;;;;;1.73;0.30;;;;;;;;;;5054717;28;20022;-40
2024/02/23 13:36:45;;;;;;;1.25;0.40;;;;;;;;;;5052877;28;20029;-39
2024/02/23 13:39:12;;;;;;;1.02;0.22;;;;;;;;;;5065844;28;20057;-36
2024/02/23 13:41:39;;;;;;;2.95;0.50;;;;;;;;;;5074564;28;20028;-38
2024/02/23 13:44:06;;;;;;;1.75;0.32;;;;;;;;;;5074529;28;20028;-35
2024/02/23 13:46:33;;;;;;;1.65;0.30;;;;;;;;;;5074430;28;20493;-36
2024/02/23 13:49:05;;;;;;;0.55;0.30;;;;;;;;;;5056449;28;20612;-36
2024/02/23 13:51:32;;;;;;;1.58;0.40;;;;;;;;;;5074408;28;20175;-35
2024/02/23 13:53:59;;;;;;;0.85;0.25;;;;;;;;;;5074361;28;20028;-38
2024/02/23 13:56:26;;;;;;;2.50;0.40;;;;;;;;;;5074295;28;20074;-38
2024/02/23 13:58:53;;;;;;;0.85;0.40;;;;;;;;;;5074275;28;20029;-37
2024/02/23 14:01:20;;;;;;;1.77;0.30;;;;;;;;;;5074335;28;20035;-36
2024/02/23 14:03:47;;;;;;;1.00;0.28;;;;;;;;;;5074269;28;20052;-40
2024/02/23 14:06:14;;;;;;;0.73;0.30;;;;;;;;;;5073887;28;20052;-37
2024/02/23 14:08:42;;;;;;;0.55;0.22;;;;;;;;;;5074047;28;20086;-34
2024/02/23 14:11:09;;;;;;;0.65;0.20;;;;;;;;;;5073812;28;20031;-35
2024/02/23 14:13:36;;;;;;;0.77;0.35;;;;;;;;;;5074065;28;20390;-37
2024/02/23 14:16:04;;;;;;;1.15;0.22;;;;;;;;;;5073934;28;20090;-39
2024/02/23 14:18:36;;;;;;;1.08;0.20;;;;;;;;;;5074083;28;20157;-36
2024/02/23 14:21:04;;;;;;;1.60;0.30;;;;;;;;;;5073805;28;20475;-35
2024/02/23 14:23:31;;;;;;;1.13;0.40;;;;;;;;;;5073842;28;20255;-34
2024/02/23 14:25:58;;;;;;;5.30;0.40;;;;;;;;;;5073678;28;20032;-34
2024/02/23 14:28:25;;;;;;;0.40;0.22;;;;;;;;;;5073707;28;20033;-39
2024/02/23 14:30:53;;;;;;;3.53;0.50;;;;;;;;;;5073160;28;20105;-37
2024/02/23 14:33:20;;;;;;;2.90;0.40;;;;;;;;;;5073673;28;20020;-38
2024/02/23 14:35:49;;;;;;;1.40;0.25;;;;;;;;;;5073618;28;20025;-38
2024/02/23 14:38:16;;;;;;;1.27;0.40;;;;;;;;;;5073297;28;20394;-35
2024/02/23 14:40:43;;;;;;;1.73;0.40;;;;;;;;;;5073547;28;20028;-40
2024/02/23 14:43:10;;;;;;;0.90;0.32;;;;;;;;;;5073469;28;20385;-35
2024/02/23 14:45:38;;;;;;;0.73;0.20;;;;;;;;;;5073348;28;20074;-35